createdAt,value
2022-09-28T00:01:54.104Z,9.32
2022-09-28T00:04:23.056Z,8.80
2022-09-28T00:06:51.643Z,10.02
2022-09-28T00:09:20.264Z,8.93
2022-09-28T00:11:48.897Z,9.43
2022-09-28T00:14:18.760Z,9.80
2022-09-28T00:16:47.253Z,9.10
2022-09-28T00:19:16.254Z,9.57
2022-09-28T00:21:44.844Z,9.57
2022-09-28T00:24:15.223Z,9.30
2022-09-28T00:26:45.048Z,9.48
2022-09-28T00:29:22.529Z,10.35
2022-09-28T00:31:53.334Z,9.18
2022-09-28T00:34:22.013Z,9.90
2022-09-28T00:36:50.621Z,10.05
2022-09-28T00:39:19.209Z,8.93
2022-09-28T00:41:48.047Z,9.05
2022-09-28T00:44:37.076Z,9.20
2022-09-28T00:47:09.150Z,9.57
2022-09-28T00:49:41.275Z,8.70
2022-09-28T00:52:10.225Z,8.38
2022-09-28T00:54:38.710Z,8.50
2022-09-28T00:57:07.121Z,7.65
2022-09-28T00:59:37.039Z,7.55
2022-09-28T01:02:05.623Z,8.10
2022-09-28T01:04:34.061Z,7.45
2022-09-28T01:07:02.456Z,6.70
2022-09-28T01:09:30.970Z,6.85
2022-09-28T01:11:59.412Z,6.95
2022-09-28T01:14:27.976Z,6.80
2022-09-28T01:17:02.180Z,6.18
2022-09-28T01:19:43.963Z,6.32
2022-09-28T01:22:21.122Z,5.78
2022-09-28T01:24:50.069Z,5.28
2022-09-28T01:27:22.500Z,5.50
2022-09-28T01:29:56.525Z,5.20
2022-09-28T01:32:33.077Z,5.22
2022-09-28T01:35:04.540Z,4.25
2022-09-28T01:37:36.121Z,4.80
2022-09-28T01:40:06.798Z,4.63
2022-09-28T01:42:38.872Z,4.03
2022-09-28T01:45:08.953Z,4.22
2022-09-28T01:47:39.703Z,4.47
2022-09-28T01:50:11.445Z,4.00
2022-09-28T01:52:43.531Z,4.43
2022-09-28T01:55:13.765Z,4.05
2022-09-28T01:57:46.453Z,3.50
2022-09-28T02:00:15.943Z,4.40
2022-09-28T02:02:48.336Z,3.90
2022-09-28T02:05:18.623Z,3.17
2022-09-28T02:07:49.895Z,3.85
2022-09-28T02:10:21.452Z,3.88
2022-09-28T02:12:53.352Z,3.75
2022-09-28T02:15:22.522Z,3.95
2022-09-28T02:17:51.330Z,3.55
2022-09-28T02:20:19.970Z,3.80
2022-09-28T02:22:50.000Z,3.30
2022-09-28T02:25:23.161Z,3.30
2022-09-28T02:27:56.044Z,3.80
2022-09-28T02:30:24.530Z,3.08
2022-09-28T02:32:54.908Z,3.70
2022-09-28T02:35:23.951Z,3.50
2022-09-28T02:37:52.417Z,3.35
2022-09-28T02:40:21.785Z,3.67
2022-09-28T02:42:59.412Z,3.55
2022-09-28T02:45:36.018Z,3.95
2022-09-28T02:48:07.214Z,3.40
2022-09-28T02:50:41.567Z,3.40
2022-09-28T02:53:17.422Z,3.47
2022-09-28T02:55:54.656Z,3.33
2022-09-28T02:58:32.311Z,3.40
2022-09-28T03:01:05.099Z,3.55
2022-09-28T03:03:36.576Z,3.30
2022-09-28T03:06:07.305Z,2.85
2022-09-28T03:08:37.766Z,3.47
2022-09-28T03:11:08.029Z,3.42
2022-09-28T03:13:37.964Z,3.60
2022-09-28T03:16:10.438Z,3.17
2022-09-28T03:18:39.021Z,3.40
2022-09-28T03:21:07.902Z,2.90
2022-09-28T03:23:36.301Z,3.45
2022-09-28T03:26:04.709Z,3.28
2022-09-28T03:28:34.615Z,2.80
2022-09-28T03:31:04.603Z,3.20
2022-09-28T03:33:33.036Z,3.25
2022-09-28T03:36:01.463Z,3.03
2022-09-28T03:38:29.863Z,3.20
2022-09-28T03:40:58.888Z,2.75
2022-09-28T03:43:27.996Z,3.08
2022-09-28T03:45:56.742Z,2.80
2022-09-28T03:48:31.841Z,3.45
2022-09-28T03:51:01.466Z,3.03
2022-09-28T03:53:30.189Z,3.40
2022-09-28T03:55:58.735Z,2.88
2022-09-28T03:58:29.713Z,3.15
2022-09-28T04:01:03.005Z,2.78
2022-09-28T04:03:32.900Z,3.00
2022-09-28T04:06:01.382Z,3.38
2022-09-28T04:08:30.015Z,2.80
2022-09-28T04:10:58.778Z,3.35
2022-09-28T04:13:28.568Z,3.10
2022-09-28T04:15:57.654Z,3.17
2022-09-28T04:18:26.391Z,3.38
2022-09-28T04:21:06.629Z,3.28
2022-09-28T04:23:35.785Z,2.85
2022-09-28T04:26:04.263Z,3.20
2022-09-28T04:28:50.345Z,2.60
2022-09-28T04:31:19.494Z,3.10
2022-09-28T04:33:47.968Z,3.15
2022-09-28T04:36:19.718Z,2.80
2022-09-28T04:38:53.083Z,2.67
2022-09-28T04:41:22.907Z,2.60
2022-09-28T04:43:52.056Z,2.90
2022-09-28T04:46:20.973Z,2.80
2022-09-28T04:48:49.431Z,2.38
2022-09-28T04:51:19.218Z,2.58
2022-09-28T04:53:47.604Z,2.50
2022-09-28T04:56:16.954Z,2.53
2022-09-28T04:58:50.327Z,2.33
2022-09-28T05:01:23.713Z,2.50
2022-09-28T05:03:52.570Z,2.60
2022-09-28T05:06:22.977Z,2.50
2022-09-28T05:08:51.376Z,2.60
2022-09-28T05:11:21.415Z,2.63
2022-09-28T05:13:50.511Z,2.47
2022-09-28T05:16:20.456Z,3.15
2022-09-28T05:18:49.025Z,2.75
2022-09-28T05:21:20.092Z,2.60
2022-09-28T05:23:50.026Z,2.60
2022-09-28T05:26:18.688Z,2.65
2022-09-28T05:28:47.280Z,2.80
2022-09-28T05:31:16.468Z,2.65
2022-09-28T05:33:45.463Z,2.30
2022-09-28T05:36:14.109Z,2.80
2022-09-28T05:38:42.934Z,2.58
2022-09-28T05:41:13.090Z,2.47
2022-09-28T05:43:41.754Z,2.33
2022-09-28T05:46:10.978Z,2.47
2022-09-28T05:48:39.710Z,2.40
2022-09-28T05:51:10.321Z,2.30
2022-09-28T05:53:39.012Z,2.65
2022-09-28T05:56:07.707Z,2.25
2022-09-28T05:58:37.668Z,2.20
2022-09-28T06:01:06.275Z,2.25
2022-09-28T06:03:34.992Z,2.20
2022-09-28T06:06:03.705Z,2.03
2022-09-28T06:08:33.490Z,2.25
2022-09-28T06:11:02.284Z,2.20
2022-09-28T06:13:32.271Z,2.95
2022-09-28T06:16:04.894Z,2.13
2022-09-28T06:18:33.649Z,2.08
2022-09-28T06:21:02.755Z,1.98
2022-09-28T06:23:31.148Z,2.38
2022-09-28T06:26:01.052Z,2.33
2022-09-28T06:28:29.514Z,2.35
2022-09-28T06:30:58.308Z,2.20
2022-09-28T06:33:28.456Z,2.40
2022-09-28T06:35:56.896Z,2.10
2022-09-28T06:38:25.309Z,2.17
2022-09-28T06:40:53.744Z,2.63
2022-09-28T06:43:22.177Z,1.80
2022-09-28T06:45:53.153Z,2.28
2022-09-28T06:48:21.837Z,2.38
2022-09-28T06:50:51.809Z,2.25
2022-09-28T06:53:20.205Z,1.83
2022-09-28T06:55:49.314Z,1.90
2022-09-28T06:58:19.619Z,2.20
2022-09-28T07:00:48.764Z,2.00
2022-09-28T07:03:18.013Z,2.13
2022-09-28T07:05:47.109Z,2.03
2022-09-28T07:08:17.163Z,2.00
2022-09-28T07:10:46.695Z,1.92
2022-09-28T07:13:39.079Z,2.10
2022-09-28T07:16:04.621Z,1.98
2022-09-28T07:18:33.013Z,2.00
2022-09-28T07:21:02.859Z,1.90
2022-09-28T07:23:34.767Z,2.20
2022-09-28T07:26:08.239Z,1.90
2022-09-28T07:28:40.480Z,1.70
2022-09-28T07:31:09.639Z,1.88
2022-09-28T07:33:38.261Z,1.70
2022-09-28T07:36:07.535Z,1.95
2022-09-28T07:38:38.297Z,2.15
2022-09-28T07:41:12.902Z,1.70
2022-09-28T07:43:41.430Z,1.67
2022-09-28T07:46:12.167Z,1.95
2022-09-28T07:48:42.096Z,1.90
2022-09-28T07:51:10.880Z,1.85
2022-09-28T07:53:40.677Z,1.50
2022-09-28T07:56:09.455Z,1.67
2022-09-28T07:58:38.829Z,1.55
2022-09-28T08:01:08.458Z,1.45
2022-09-28T08:03:36.977Z,1.70
2022-09-28T08:06:07.070Z,1.83
2022-09-28T08:08:35.918Z,1.92
2022-09-28T08:11:08.445Z,1.80
2022-09-28T08:13:37.358Z,1.65
2022-09-28T08:16:08.357Z,1.42
2022-09-28T08:18:37.114Z,1.92
2022-09-28T08:21:23.586Z,1.90
2022-09-28T08:23:52.950Z,1.80
2022-09-28T08:26:22.823Z,1.75
2022-09-28T08:28:51.281Z,1.67
2022-09-28T08:31:19.733Z,1.60
2022-09-28T08:33:53.754Z,1.45
2022-09-28T08:36:22.373Z,2.67
2022-09-28T08:38:50.790Z,1.70
2022-09-28T08:41:21.014Z,1.63
2022-09-28T08:44:02.012Z,1.55
2022-09-28T08:46:33.132Z,1.60
2022-09-28T08:49:24.267Z,1.63
2022-09-28T08:51:56.181Z,1.60
2022-09-28T08:54:27.757Z,1.52
2022-09-28T08:56:57.354Z,1.65
2022-09-28T08:59:28.119Z,1.70
2022-09-28T09:01:58.344Z,1.50
2022-09-28T09:04:27.336Z,1.80
2022-09-28T09:07:19.777Z,1.50
2022-09-28T09:09:55.666Z,1.33
2022-09-28T09:12:28.790Z,1.70
2022-09-28T09:15:09.387Z,1.60
2022-09-28T09:17:41.561Z,1.42
2022-09-28T09:20:15.487Z,1.38
2022-09-28T09:22:51.094Z,1.60
2022-09-28T09:25:21.360Z,1.63
2022-09-28T09:27:56.642Z,1.50
2022-09-28T09:30:29.981Z,1.52
2022-09-28T09:33:08.822Z,1.75
2022-09-28T09:35:49.953Z,1.50
2022-09-28T09:38:35.048Z,1.42
2022-09-28T09:43:55.949Z,1.52
2022-09-28T09:46:31.376Z,1.80
2022-09-28T09:49:02.203Z,1.25
2022-09-28T09:51:44.114Z,1.45
2022-09-28T09:54:18.116Z,1.52
2022-09-28T09:56:49.603Z,1.80
2022-09-28T09:59:23.068Z,1.50
2022-09-28T10:01:54.014Z,1.60
2022-09-28T10:04:25.108Z,1.70
2022-09-28T10:06:54.876Z,1.67
2022-09-28T10:09:26.075Z,1.63
2022-09-28T10:11:55.089Z,1.40
2022-09-28T10:14:24.706Z,1.55
2022-09-28T10:16:55.140Z,1.30
2022-09-28T10:19:27.644Z,1.17
2022-09-28T10:21:57.219Z,1.60
2022-09-28T10:24:30.018Z,1.80
2022-09-28T10:27:00.853Z,1.70
2022-09-28T10:29:36.120Z,1.95
2022-09-28T10:32:19.013Z,1.45
2022-09-28T10:34:50.282Z,1.20
2022-09-28T10:37:20.271Z,1.50
2022-09-28T10:39:51.701Z,1.60
2022-09-28T10:42:21.499Z,1.45
2022-09-28T10:44:54.829Z,1.40
2022-09-28T10:47:25.900Z,1.42
2022-09-28T10:49:55.548Z,1.30
2022-09-28T10:52:37.490Z,1.67
2022-09-28T10:55:27.209Z,1.80
2022-09-28T10:57:55.724Z,2.17
2022-09-28T11:00:39.499Z,1.80
2022-09-28T11:03:19.075Z,1.75
2022-09-28T11:05:55.387Z,1.55
2022-09-28T11:08:26.448Z,1.73
2022-09-28T11:11:03.616Z,1.60
2022-09-28T11:13:33.394Z,1.30
2022-09-28T11:16:01.829Z,1.30
2022-09-28T11:18:32.564Z,1.45
2022-09-28T11:21:12.930Z,1.30
2022-09-28T11:23:42.192Z,1.20
2022-09-28T11:26:18.185Z,1.30
2022-09-28T11:28:52.307Z,1.45
2022-09-28T11:31:27.040Z,1.75
2022-09-28T11:34:06.119Z,1.40
2022-09-28T11:36:41.942Z,1.33
2022-09-28T11:39:12.908Z,1.05
2022-09-28T11:41:51.249Z,1.45
2022-09-28T11:44:30.995Z,1.30
2022-09-28T11:47:11.833Z,1.60
2022-09-28T11:49:43.689Z,1.50
2022-09-28T11:52:15.540Z,1.30
2022-09-28T11:54:47.420Z,1.42
2022-09-28T11:57:18.208Z,1.52
2022-09-28T11:59:52.174Z,1.65
2022-09-28T12:02:23.857Z,1.40
2022-09-28T12:04:56.896Z,1.20
2022-09-28T12:07:27.640Z,1.30
2022-09-28T12:09:57.613Z,1.45
2022-09-28T12:12:32.535Z,1.20
2022-09-28T12:15:02.930Z,1.30
2022-09-28T12:17:34.241Z,1.30
2022-09-28T12:20:06.468Z,1.27
2022-09-28T12:22:36.781Z,1.30
2022-09-28T12:25:06.775Z,1.20
2022-09-28T12:27:39.744Z,1.08
2022-09-28T12:30:14.706Z,1.40
2022-09-28T12:32:45.097Z,1.55
2022-09-28T12:35:16.238Z,1.42
2022-09-28T12:37:56.258Z,1.45
2022-09-28T12:40:35.034Z,1.67
2022-09-28T12:43:29.053Z,1.20
2022-09-28T12:46:12.797Z,1.30
2022-09-28T12:49:03.026Z,1.05
2022-09-28T12:51:45.013Z,1.50
2022-09-28T12:54:22.146Z,1.23
2022-09-28T12:56:55.558Z,1.33
2022-09-28T12:59:28.260Z,1.38
2022-09-28T13:02:03.488Z,1.30
2022-09-28T13:04:47.843Z,1.33
2022-09-28T13:07:21.380Z,1.00
2022-09-28T13:09:54.825Z,1.50
2022-09-28T13:12:34.388Z,1.20
2022-09-28T13:15:21.764Z,1.38
2022-09-28T13:17:54.489Z,1.10
2022-09-28T13:20:27.328Z,1.13
2022-09-28T13:23:01.694Z,1.20
2022-09-28T13:25:32.297Z,1.20
2022-09-28T13:28:02.866Z,1.17
2022-09-28T13:30:31.830Z,1.00
2022-09-28T13:33:01.305Z,1.10
2022-09-28T13:35:29.860Z,1.20
2022-09-28T13:38:14.385Z,1.00
2022-09-28T13:41:03.671Z,1.15
2022-09-28T13:43:36.216Z,1.23
2022-09-28T13:46:11.589Z,0.90
2022-09-28T13:48:48.579Z,1.20
2022-09-28T13:51:26.882Z,0.98
2022-09-28T13:54:10.212Z,1.17
2022-09-28T13:56:41.169Z,1.00
2022-09-28T13:59:16.323Z,1.00
2022-09-28T14:01:47.409Z,0.90
2022-09-28T14:04:19.015Z,1.33
2022-09-28T14:06:54.856Z,1.00
2022-09-28T14:09:41.966Z,1.30
2022-09-28T14:12:30.239Z,1.00
2022-09-28T14:15:00.071Z,1.00
2022-09-28T14:17:55.657Z,1.05
2022-09-28T14:20:26.361Z,1.00
2022-09-28T14:23:11.544Z,0.90
2022-09-28T14:25:43.033Z,1.05
2022-09-28T14:28:30.087Z,1.10
2022-09-28T14:30:59.939Z,1.00
2022-09-28T14:33:31.155Z,1.10
2022-09-28T14:36:02.136Z,1.00
2022-09-28T14:38:50.012Z,1.00
2022-09-28T14:41:28.856Z,0.90
2022-09-28T14:44:02.550Z,0.95
2022-09-28T14:46:36.772Z,1.10
2022-09-28T14:49:06.585Z,1.10
2022-09-28T14:52:03.314Z,1.10
2022-09-28T14:54:40.219Z,1.00
2022-09-28T14:57:10.009Z,1.08
2022-09-28T14:59:43.503Z,1.27
2022-09-28T15:02:17.018Z,1.10
2022-09-28T15:04:47.378Z,1.35
2022-09-28T15:07:21.473Z,1.27
2022-09-28T15:09:50.869Z,1.02
2022-09-28T15:12:20.353Z,1.25
2022-09-28T15:14:51.593Z,1.08
2022-09-28T15:17:23.310Z,1.30
2022-09-28T15:19:55.516Z,1.00
2022-09-28T15:22:24.029Z,1.30
2022-09-28T15:25:01.372Z,1.13
2022-09-28T15:27:36.800Z,1.50
2022-09-28T15:30:18.572Z,1.25
2022-09-28T15:32:48.471Z,1.40
2022-09-28T15:35:20.522Z,1.20
2022-09-28T15:37:52.127Z,1.30
2022-09-28T15:40:21.840Z,1.20
2022-09-28T15:42:50.388Z,1.20
2022-09-28T15:45:26.487Z,1.40
2022-09-28T15:47:58.463Z,1.15
2022-09-28T15:50:28.626Z,1.40
2022-09-28T15:52:59.126Z,1.40
2022-09-28T15:55:29.086Z,1.30
2022-09-28T15:58:07.945Z,1.35
2022-09-28T16:00:36.896Z,1.27
2022-09-28T16:03:22.447Z,1.30
2022-09-28T16:05:52.047Z,1.30
2022-09-28T16:08:25.681Z,1.70
2022-09-28T16:10:57.310Z,1.40
2022-09-28T16:13:25.819Z,1.25
2022-09-28T16:16:00.015Z,1.20
2022-09-28T16:18:32.440Z,1.45
2022-09-28T16:21:09.451Z,1.15
2022-09-28T16:23:38.836Z,1.90
2022-09-28T16:26:09.005Z,1.75
2022-09-28T16:28:51.994Z,1.92
2022-09-28T16:31:33.711Z,1.50
2022-09-28T16:34:11.729Z,1.65
2022-09-28T16:36:45.522Z,1.58
2022-09-28T16:39:16.304Z,1.60
2022-09-28T16:41:46.355Z,1.77
2022-09-28T16:44:17.378Z,2.08
2022-09-28T16:46:46.665Z,2.00
2022-09-28T16:49:19.376Z,1.95
2022-09-28T16:51:48.564Z,1.70
2022-09-28T16:54:36.121Z,1.42
2022-09-28T16:57:05.217Z,1.50
2022-09-28T16:59:33.875Z,1.55
2022-09-28T17:02:02.281Z,1.48
2022-09-28T17:04:32.048Z,1.70
2022-09-28T17:07:00.460Z,1.50
2022-09-28T17:09:29.431Z,1.88
2022-09-28T17:11:57.844Z,1.70
2022-09-28T17:14:26.244Z,1.60
2022-09-28T17:17:08.059Z,1.52
2022-09-28T17:19:39.540Z,1.67
2022-09-28T17:22:08.273Z,1.83
2022-09-28T17:24:36.697Z,1.83
2022-09-28T17:27:06.966Z,1.90
2022-09-28T17:29:35.408Z,1.63
2022-09-28T17:32:05.028Z,1.65
2022-09-28T17:34:33.453Z,1.88
2022-09-28T17:37:03.270Z,1.80
2022-09-28T17:39:31.752Z,1.75
2022-09-28T17:42:00.195Z,1.58
2022-09-28T17:44:28.598Z,2.08
2022-09-28T17:46:57.719Z,2.05
2022-09-28T17:49:26.112Z,2.08
2022-09-28T17:51:55.073Z,2.10
2022-09-28T17:54:26.105Z,2.38
2022-09-28T17:56:54.726Z,2.47
2022-09-28T17:59:23.135Z,2.45
2022-09-28T18:01:51.684Z,2.60
2022-09-28T18:04:47.229Z,2.03
2022-09-28T18:07:08.828Z,2.22
2022-09-28T18:09:38.681Z,2.30
2022-09-28T18:12:07.551Z,2.35
2022-09-28T18:14:36.101Z,2.17
2022-09-28T18:17:04.708Z,2.17
2022-09-28T18:19:33.124Z,2.17
2022-09-28T18:22:02.375Z,1.95
2022-09-28T18:24:32.631Z,2.10
2022-09-28T18:27:02.621Z,2.15
2022-09-28T18:29:33.272Z,2.10
2022-09-28T18:32:01.865Z,2.25
2022-09-28T18:34:30.264Z,1.88
2022-09-28T18:36:58.704Z,2.28
2022-09-28T18:39:27.480Z,2.40
2022-09-28T18:41:55.944Z,2.22
2022-09-28T18:44:25.894Z,2.00
2022-09-28T18:46:54.540Z,1.98
2022-09-28T18:49:22.951Z,2.28
2022-09-28T18:51:51.344Z,2.40
2022-09-28T18:54:19.801Z,2.00
2022-09-28T18:56:48.241Z,1.85
2022-09-28T18:59:16.872Z,2.15
2022-09-28T19:01:46.766Z,2.10
2022-09-28T19:04:15.313Z,2.05
2022-09-28T19:06:44.758Z,1.92
2022-09-28T19:09:13.498Z,1.58
2022-09-28T19:11:42.251Z,1.98
2022-09-28T19:14:11.102Z,1.80
2022-09-28T19:16:39.599Z,1.85
2022-09-28T19:19:09.402Z,1.65
2022-09-28T19:21:37.866Z,1.88
2022-09-28T19:24:06.332Z,1.95
2022-09-28T19:26:34.977Z,1.77
2022-09-28T19:29:03.577Z,1.92
2022-09-28T19:31:32.614Z,1.98
2022-09-28T19:34:01.110Z,1.90
2022-09-28T19:36:31.213Z,1.95
2022-09-28T19:39:02.861Z,1.80
2022-09-28T19:41:51.758Z,2.20
2022-09-28T19:44:24.853Z,2.08
2022-09-28T19:46:54.705Z,2.00
2022-09-28T19:49:23.726Z,2.00
2022-09-28T19:52:12.303Z,2.33
2022-09-28T19:54:43.951Z,2.40
2022-09-28T19:57:12.591Z,2.20
2022-09-28T19:59:41.132Z,2.78
2022-09-28T20:02:09.827Z,2.50
2022-09-28T20:04:38.225Z,2.53
2022-09-28T20:07:08.040Z,2.38
2022-09-28T20:09:36.504Z,2.53
2022-09-28T20:12:05.030Z,2.38
2022-09-28T20:14:38.014Z,2.33
2022-09-28T20:17:08.958Z,2.70
2022-09-28T20:19:37.536Z,2.60
2022-09-28T20:22:05.981Z,2.20
2022-09-28T20:24:35.773Z,2.60
2022-09-28T20:27:04.226Z,2.63
2022-09-28T20:29:33.709Z,2.90
2022-09-28T20:32:03.964Z,2.55
2022-09-28T20:34:33.580Z,2.60
2022-09-28T20:37:02.584Z,2.95
2022-09-28T20:39:31.007Z,3.35
2022-09-28T20:42:00.808Z,2.97
2022-09-28T20:44:29.260Z,3.03
2022-09-28T20:46:57.764Z,3.05
2022-09-28T20:49:27.227Z,3.17
2022-09-28T20:51:55.892Z,3.05
2022-09-28T20:54:24.313Z,3.22
2022-09-28T20:56:52.740Z,2.67
2022-09-28T20:59:25.994Z,2.67
2022-09-28T21:01:54.426Z,2.70
2022-09-28T21:04:22.859Z,3.38
2022-09-28T21:06:52.026Z,2.70
2022-09-28T21:09:20.444Z,2.75
2022-09-28T21:11:48.901Z,2.63
2022-09-28T21:14:17.552Z,2.72
2022-09-28T21:16:47.400Z,2.90
2022-09-28T21:19:15.892Z,2.70
2022-09-28T21:21:44.264Z,2.45
2022-09-28T21:24:12.800Z,2.47
2022-09-28T21:26:41.193Z,2.50
2022-09-28T21:29:12.873Z,2.50
2022-09-28T21:31:42.131Z,2.33
2022-09-28T21:34:14.433Z,2.72
2022-09-28T21:36:44.117Z,2.50
2022-09-28T21:39:12.491Z,2.38
2022-09-28T21:41:40.925Z,3.13
2022-09-28T21:44:10.019Z,2.58
2022-09-28T21:46:38.831Z,2.63
2022-09-28T21:49:07.764Z,2.50
2022-09-28T21:51:38.140Z,2.38
2022-09-28T21:54:06.863Z,2.42
2022-09-28T21:56:35.262Z,2.72
2022-09-28T21:59:03.677Z,2.47
2022-09-28T22:01:32.160Z,2.50
2022-09-28T22:04:00.629Z,2.70
2022-09-28T22:06:29.183Z,3.00
2022-09-28T22:08:59.096Z,2.30
2022-09-28T22:11:28.397Z,2.70
2022-09-28T22:13:57.567Z,2.38
2022-09-28T22:16:27.189Z,2.33
2022-09-28T22:18:55.661Z,2.35
2022-09-28T22:21:24.525Z,2.45
2022-09-28T22:23:53.508Z,2.10
2022-09-28T22:26:24.795Z,2.33
2022-09-28T22:28:54.086Z,2.05
2022-09-28T22:31:23.434Z,2.13
2022-09-28T22:33:51.977Z,2.50
2022-09-28T22:36:20.394Z,2.95
2022-09-28T22:38:49.173Z,2.80
2022-09-28T22:41:19.606Z,2.65
2022-09-28T22:43:49.880Z,3.00
2022-09-28T22:46:19.786Z,3.13
2022-09-28T22:48:48.990Z,3.10
2022-09-28T22:51:17.823Z,2.75
2022-09-28T22:53:46.265Z,2.50
2022-09-28T22:56:18.829Z,2.30
2022-09-28T22:58:49.073Z,2.60
2022-09-28T23:01:18.544Z,2.50
2022-09-28T23:03:47.069Z,2.20
2022-09-28T23:06:17.112Z,2.25
2022-09-28T23:08:45.851Z,2.15
2022-09-28T23:11:14.378Z,2.53
2022-09-28T23:13:43.102Z,2.10
2022-09-28T23:16:14.919Z,2.13
2022-09-28T23:18:43.680Z,2.20
2022-09-28T23:21:15.218Z,2.30
2022-09-28T23:23:43.755Z,2.00
2022-09-28T23:26:12.739Z,1.83
2022-09-28T23:28:41.252Z,1.77
2022-09-28T23:31:10.458Z,1.90
2022-09-28T23:33:40.285Z,1.80
2022-09-28T23:36:09.433Z,1.83
2022-09-28T23:38:37.870Z,1.60
2022-09-28T23:41:06.278Z,1.45
2022-09-28T23:43:34.677Z,1.52
2022-09-28T23:46:03.181Z,1.40
2022-09-28T23:48:31.712Z,1.40
2022-09-28T23:51:01.725Z,1.55
2022-09-28T23:53:32.155Z,1.73
2022-09-28T23:56:00.572Z,1.88
2022-09-28T23:58:29.002Z,1.88
